Time;durP1;ratioP1;P1;durP2;ratioP2;P2;SDS_P1;SDS_P2;PMS_P1;PMS_P2;Temp;Humidity;BMP_temperature;BMP_pressure;BME280_temperature;BME280_humidity;BME280_pressure;Samples;Min_cycle;Max_cycle;Signal;HPM_P1;HPM_P2
2023/09/17 00:00:26;;;;;;;11.63;10.53;;;22.80;99.90;;;;;;5011214;28;20192;-75
2023/09/17 00:02:52;;;;;;;9.73;8.83;;;22.80;99.90;;;;;;5010470;28;20292;-75
2023/09/17 00:05:17;;;;;;;10.70;9.70;;;22.80;99.90;;;;;;5016865;28;20565;-73
2023/09/17 00:07:43;;;;;;;10.50;9.57;;;22.70;99.90;;;;;;4997861;28;20192;-75
2023/09/17 00:10:09;;;;;;;13.40;9.27;;;22.60;99.90;;;;;;5022410;28;20220;-75
2023/09/17 00:12:35;;;;;;;13.37;9.10;;;22.60;99.90;;;;;;5021969;28;20490;-74
2023/09/17 00:15:03;;;;;;;10.50;9.47;;;22.60;99.90;;;;;;5013246;28;20192;-75
2023/09/17 00:17:28;;;;;;;9.90;9.00;;;22.60;99.90;;;;;;5012086;28;20466;-76
2023/09/17 00:19:54;;;;;;;10.33;9.33;;;22.60;99.90;;;;;;5016602;28;20439;-76
2023/09/17 00:22:20;;;;;;;10.43;9.53;;;22.60;99.90;;;;;;5014083;28;20480;-74
2023/09/17 00:24:45;;;;;;;11.10;10.03;;;22.60;99.90;;;;;;5011030;28;20659;-75
2023/09/17 00:27:11;;;;;;;11.00;9.90;;;22.50;99.90;;;;;;5018568;28;20191;-74
2023/09/17 00:29:37;;;;;;;16.90;9.60;;;22.50;99.90;;;;;;5016717;28;20252;-73
2023/09/17 00:32:02;;;;;;;9.67;8.77;;;22.50;99.90;;;;;;5021581;28;20228;-75
2023/09/17 00:34:28;;;;;;;10.60;9.60;;;22.40;99.90;;;;;;5030214;28;20632;-74
2023/09/17 00:36:54;;;;;;;11.07;9.90;;;22.50;99.90;;;;;;5013128;28;20209;-74
2023/09/17 00:39:19;;;;;;;15.60;10.23;;;22.50;99.90;;;;;;5015456;28;20185;-74
2023/09/17 00:41:45;;;;;;;11.10;10.00;;;22.50;99.90;;;;;;5018268;28;20218;-75
2023/09/17 00:44:11;;;;;;;10.93;9.80;;;22.50;99.90;;;;;;5024383;28;20617;-75
2023/09/17 00:46:38;;;;;;;14.73;10.27;;;22.50;99.90;;;;;;5029079;28;20189;-74
2023/09/17 00:49:05;;;;;;;15.67;10.17;;;22.50;99.90;;;;;;5015230;28;20431;-76
2023/09/17 00:51:30;;;;;;;10.50;9.50;;;22.50;99.90;;;;;;4995870;28;20458;-74
2023/09/17 00:53:58;;;;;;;11.37;9.90;;;22.50;99.90;;;;;;4997673;28;20968;-75
2023/09/17 00:56:26;;;;;;;11.23;10.17;;;22.50;99.90;;;;;;5013608;28;20219;-74
2023/09/17 00:58:52;;;;;;;10.10;8.90;;;22.50;99.90;;;;;;5015838;28;20435;-74
2023/09/17 01:01:20;;;;;;;10.17;9.13;;;22.50;99.90;;;;;;5010356;28;20459;-74
2023/09/17 01:03:46;;;;;;;11.00;9.80;;;22.50;99.90;;;;;;5010332;28;20436;-73
2023/09/17 01:06:13;;;;;;;11.30;10.20;;;22.50;99.90;;;;;;5018850;28;20442;-74
2023/09/17 01:08:41;;;;;;;10.87;9.87;;;22.60;99.90;;;;;;4997566;28;20920;-73
2023/09/17 01:11:09;;;;;;;12.20;11.00;;;22.60;99.90;;;;;;5017287;28;20543;-73
2023/09/17 01:13:40;;;;;;;10.43;9.43;;;22.60;99.90;;;;;;5016740;28;20446;-73
2023/09/17 01:16:06;;;;;;;10.43;9.40;;;22.50;99.90;;;;;;5014541;28;20459;-73
2023/09/17 01:18:34;;;;;;;10.60;9.60;;;22.60;99.90;;;;;;4997582;28;20484;-74
2023/09/17 01:21:08;;;;;;;10.50;9.40;;;22.60;99.90;;;;;;5026822;28;20450;-73
2023/09/17 01:24:26;;;;;;;11.27;10.27;;;22.60;99.90;;;;;;5015666;28;20905;-74
2023/09/17 01:27:12;;;;;;;9.97;9.07;;;22.60;99.90;;;;;;4982386;28;20534;-74
2023/09/17 01:29:40;;;;;;;10.97;10.00;;;22.50;99.90;;;;;;5016669;28;20439;-74
2023/09/17 01:32:07;;;;;;;11.73;9.80;;;22.50;99.90;;;;;;5017478;28;20470;-74
2023/09/17 01:34:34;;;;;;;10.80;9.70;;;22.40;99.90;;;;;;5018813;28;20434;-74
2023/09/17 01:37:02;;;;;;;11.57;10.47;;;22.40;99.90;;;;;;4998828;28;20474;-74
2023/09/17 01:39:33;;;;;;;11.43;10.23;;;22.30;99.90;;;;;;5018489;28;20443;-73
2023/09/17 01:42:02;;;;;;;10.57;9.67;;;22.30;99.90;;;;;;5016795;28;20451;-73
2023/09/17 01:44:29;;;;;;;11.50;9.00;;;22.40;99.90;;;;;;5023531;28;21097;-73
2023/09/17 01:46:57;;;;;;;10.97;9.87;;;22.40;99.90;;;;;;5012919;28;21241;-73
2023/09/17 01:49:23;;;;;;;10.37;9.37;;;22.50;99.90;;;;;;5020437;28;20467;-73
2023/09/17 01:51:49;;;;;;;9.57;8.67;;;22.50;99.90;;;;;;5012353;28;20983;-75
2023/09/17 01:54:15;;;;;;;10.83;9.20;;;22.50;99.90;;;;;;5017974;28;20435;-73
2023/09/17 01:56:42;;;;;;;11.23;10.13;;;22.50;99.90;;;;;;5014953;28;20201;-73
2023/09/17 01:59:08;;;;;;;11.20;9.80;;;22.50;99.90;;;;;;5017742;28;20444;-74
2023/09/17 02:01:33;;;;;;;10.30;9.30;;;22.50;99.90;;;;;;5017856;28;20515;-74
2023/09/17 02:03:59;;;;;;;10.70;9.70;;;22.60;99.90;;;;;;5001287;28;20238;-74
2023/09/17 02:06:25;;;;;;;10.37;9.47;;;22.60;99.90;;;;;;5021582;28;20518;-74
2023/09/17 02:08:51;;;;;;;8.70;7.80;;;22.60;99.90;;;;;;5020317;28;20268;-73
2023/09/17 02:11:16;;;;;;;8.63;7.83;;;22.60;99.90;;;;;;5018961;28;20549;-74
2023/09/17 02:13:42;;;;;;;12.20;9.30;;;22.60;99.90;;;;;;5016048;28;20231;-73
2023/09/17 02:16:07;;;;;;;9.90;8.90;;;22.60;99.90;;;;;;5004390;28;20258;-73
2023/09/17 02:18:33;;;;;;;10.23;9.00;;;22.50;99.90;;;;;;5019303;28;20204;-74
2023/09/17 02:20:59;;;;;;;10.20;8.53;;;22.50;99.90;;;;;;5004604;28;20215;-75
2023/09/17 02:23:25;;;;;;;9.73;8.73;;;22.40;99.90;;;;;;5018460;28;20219;-74
2023/09/17 02:25:51;;;;;;;8.90;7.77;;;22.40;99.90;;;;;;5021153;28;20862;-74
2023/09/17 02:28:17;;;;;;;9.80;8.80;;;22.40;99.90;;;;;;5024667;28;20450;-74
2023/09/17 02:30:43;;;;;;;10.20;8.93;;;22.40;99.90;;;;;;5016933;28;20258;-74
2023/09/17 02:33:10;;;;;;;9.80;8.80;;;22.50;99.90;;;;;;5025507;28;21018;-75
2023/09/17 02:35:36;;;;;;;9.93;9.03;;;22.50;99.90;;;;;;5029368;28;20574;-74
2023/09/17 02:38:03;;;;;;;10.93;8.30;;;22.40;99.90;;;;;;5027267;28;20437;-75
2023/09/17 02:40:29;;;;;;;9.50;8.50;;;22.40;99.90;;;;;;5029125;28;20431;-73
2023/09/17 02:42:54;;;;;;;9.60;8.70;;;22.30;99.90;;;;;;5020391;28;20958;-74
2023/09/17 02:45:20;;;;;;;9.47;8.53;;;22.20;99.90;;;;;;5014333;28;20805;-74
2023/09/17 02:47:46;;;;;;;10.00;9.00;;;22.10;99.90;;;;;;5018455;28;20198;-75
2023/09/17 02:50:12;;;;;;;13.93;9.70;;;22.10;99.90;;;;;;5014931;28;20185;-75
2023/09/17 02:52:39;;;;;;;10.67;9.57;;;22.00;99.90;;;;;;5014516;28;21130;-73
2023/09/17 02:55:05;;;;;;;9.77;8.87;;;21.90;99.90;;;;;;5015130;28;21555;-74
2023/09/17 02:57:31;;;;;;;9.97;9.03;;;21.90;99.90;;;;;;5017872;28;20477;-73
2023/09/17 02:59:56;;;;;;;10.17;9.17;;;21.90;99.90;;;;;;5015030;28;20573;-73
2023/09/17 03:02:22;;;;;;;10.63;9.63;;;21.90;99.90;;;;;;5011941;28;20973;-73
2023/09/17 03:04:51;;;;;;;11.03;9.73;;;21.80;99.90;;;;;;5009308;28;20279;-73
2023/09/17 03:07:18;;;;;;;9.77;8.77;;;21.80;99.90;;;;;;5020671;28;20183;-73
2023/09/17 03:09:45;;;;;;;9.53;8.67;;;21.70;99.90;;;;;;5001734;28;20933;-74
2023/09/17 03:12:11;;;;;;;9.03;8.13;;;21.70;99.90;;;;;;5012002;28;20814;-73
2023/09/17 03:14:36;;;;;;;11.93;9.20;;;21.70;99.90;;;;;;5023928;28;20435;-74
2023/09/17 03:17:05;;;;;;;10.47;9.47;;;21.60;99.90;;;;;;5013420;28;20474;-73
2023/09/17 03:19:31;;;;;;;9.70;8.60;;;21.60;99.90;;;;;;5021701;28;20181;-73
2023/09/17 03:21:56;;;;;;;9.90;8.90;;;21.60;99.90;;;;;;5017459;28;21720;-73
2023/09/17 03:24:22;;;;;;;9.33;8.40;;;21.60;99.90;;;;;;5016931;28;20664;-73
2023/09/17 03:26:47;;;;;;;8.57;7.87;;;21.60;99.90;;;;;;5016310;28;20180;-73
2023/09/17 03:29:13;;;;;;;8.57;7.73;;;21.70;99.90;;;;;;5017744;28;20597;-74
2023/09/17 03:31:41;;;;;;;9.17;8.30;;;21.60;99.90;;;;;;5015911;28;20215;-74
2023/09/17 03:34:06;;;;;;;10.93;8.40;;;21.50;99.90;;;;;;5011273;28;20195;-75
2023/09/17 03:36:35;;;;;;;9.13;7.50;;;21.50;99.90;;;;;;5015522;28;20459;-74
2023/09/17 03:39:01;;;;;;;11.20;7.40;;;21.50;99.90;;;;;;4993524;28;20176;-74
2023/09/17 03:41:27;;;;;;;12.20;8.77;;;21.50;99.90;;;;;;5015096;28;21157;-75
2023/09/17 03:43:52;;;;;;;8.53;7.73;;;21.50;99.90;;;;;;5014638;28;21054;-74
2023/09/17 03:46:18;;;;;;;9.97;8.97;;;21.60;99.90;;;;;;5014556;28;20322;-73
2023/09/17 03:48:45;;;;;;;8.37;7.67;;;21.60;99.90;;;;;;5015375;28;20639;-74
2023/09/17 03:51:11;;;;;;;9.30;8.20;;;21.60;99.90;;;;;;5024678;28;20455;-73
2023/09/17 03:53:36;;;;;;;8.60;7.70;;;21.50;99.90;;;;;;5015932;28;20435;-74
2023/09/17 03:56:03;;;;;;;8.27;7.47;;;21.60;99.90;;;;;;5000362;28;20299;-73
2023/09/17 03:58:29;;;;;;;9.20;7.47;;;21.50;99.90;;;;;;5019385;28;20185;-73
2023/09/17 04:00:55;;;;;;;9.20;7.67;;;21.60;99.90;;;;;;5025748;28;20458;-73
2023/09/17 04:03:20;;;;;;;10.10;8.30;;;21.50;99.90;;;;;;5006723;28;20451;-73
2023/09/17 04:05:48;;;;;;;8.53;7.77;;;21.50;99.90;;;;;;5013361;28;20285;-73
2023/09/17 04:08:14;;;;;;;9.07;8.10;;;21.50;99.90;;;;;;5028746;28;20185;-73
2023/09/17 04:10:40;;;;;;;9.00;7.53;;;21.50;99.90;;;;;;5017131;28;20496;-73
2023/09/17 04:13:06;;;;;;;8.67;7.90;;;21.60;99.90;;;;;;5017703;28;20394;-74
2023/09/17 04:15:31;;;;;;;7.37;6.77;;;21.60;99.90;;;;;;5016407;28;20423;-73
2023/09/17 04:17:57;;;;;;;12.83;7.40;;;21.70;99.90;;;;;;5013016;28;20463;-74
2023/09/17 04:20:23;;;;;;;8.27;7.47;;;21.70;99.90;;;;;;5011994;28;20183;-74
2023/09/17 04:22:50;;;;;;;9.27;8.30;;;21.70;99.90;;;;;;5019920;28;20599;-74
2023/09/17 04:25:18;;;;;;;9.10;7.67;;;21.70;99.90;;;;;;5001213;28;20419;-74
2023/09/17 04:27:46;;;;;;;10.13;7.80;;;21.70;99.90;;;;;;5008876;28;20427;-74
2023/09/17 04:30:13;;;;;;;9.40;7.33;;;21.60;99.90;;;;;;4998990;28;20814;-75
2023/09/17 04:32:40;;;;;;;8.77;7.87;;;21.60;99.90;;;;;;5014653;28;20486;-75
2023/09/17 04:35:11;;;;;;;8.93;8.07;;;21.60;99.90;;;;;;5016773;28;20505;-75
2023/09/17 04:37:40;;;;;;;8.80;7.90;;;21.70;99.90;;;;;;5014868;28;21189;-74
2023/09/17 04:40:11;;;;;;;8.37;7.57;;;21.70;99.90;;;;;;5017980;28;20439;-73
2023/09/17 04:42:38;;;;;;;9.17;7.67;;;21.70;99.90;;;;;;5021445;28;20439;-74
2023/09/17 04:45:05;;;;;;;9.33;8.43;;;21.70;99.90;;;;;;5002032;28;20422;-74
2023/09/17 04:47:34;;;;;;;8.33;7.60;;;21.70;99.90;;;;;;5016863;28;20814;-74
2023/09/17 04:50:00;;;;;;;9.60;8.70;;;21.70;99.90;;;;;;5029490;28;20577;-75
2023/09/17 04:52:25;;;;;;;9.60;7.73;;;21.70;99.90;;;;;;5017129;28;21045;-74
2023/09/17 04:54:51;;;;;;;9.50;8.60;;;21.70;99.90;;;;;;5010603;28;20733;-75
2023/09/17 04:57:17;;;;;;;8.93;8.10;;;21.70;99.90;;;;;;5021192;28;20303;-75
2023/09/17 04:59:42;;;;;;;9.63;8.73;;;21.60;99.90;;;;;;5025844;28;20275;-74
2023/09/17 05:02:08;;;;;;;10.63;9.43;;;21.50;99.90;;;;;;5001294;28;20203;-75
2023/09/17 05:04:33;;;;;;;8.63;7.80;;;21.50;99.90;;;;;;5022289;28;20693;-73
2023/09/17 05:06:59;;;;;;;9.60;8.77;;;21.50;99.90;;;;;;5024514;28;20302;-74
2023/09/17 05:09:28;;;;;;;9.60;8.27;;;21.50;99.90;;;;;;5021039;28;20182;-73
2023/09/17 05:11:53;;;;;;;9.27;8.33;;;21.50;99.90;;;;;;5020392;28;20208;-74
2023/09/17 05:14:19;;;;;;;9.83;8.40;;;21.60;99.90;;;;;;5025451;28;20506;-74
2023/09/17 05:16:44;;;;;;;9.77;8.87;;;21.60;99.90;;;;;;5025468;28;20212;-74
2023/09/17 05:19:10;;;;;;;8.57;7.77;;;21.60;99.90;;;;;;5028980;28;20193;-73
2023/09/17 05:21:35;;;;;;;10.47;9.43;;;21.60;99.90;;;;;;5017927;28;20205;-72
2023/09/17 05:24:01;;;;;;;12.60;8.43;;;21.70;99.90;;;;;;5017906;28;20195;-75
2023/09/17 05:26:27;;;;;;;9.37;8.13;;;21.70;99.90;;;;;;5019582;28;20192;-74
2023/09/17 05:28:52;;;;;;;8.80;7.90;;;21.70;99.90;;;;;;5023498;28;20270;-74
2023/09/17 05:31:18;;;;;;;9.23;8.20;;;21.70;99.90;;;;;;5017448;28;20204;-74
2023/09/17 05:33:43;;;;;;;9.47;8.43;;;21.70;99.90;;;;;;5023059;28;20200;-75
2023/09/17 05:36:09;;;;;;;10.27;8.87;;;21.70;99.90;;;;;;5018855;28;20243;-74
2023/09/17 05:38:35;;;;;;;8.70;7.90;;;21.70;99.90;;;;;;5016641;28;20451;-73
2023/09/17 05:41:01;;;;;;;9.90;8.90;;;21.70;99.90;;;;;;5016461;28;20731;-73
2023/09/17 05:43:26;;;;;;;9.50;8.60;;;21.70;99.90;;;;;;5021285;28;20180;-72
2023/09/17 05:45:56;;;;;;;10.23;8.57;;;21.70;99.90;;;;;;5020738;28;20859;-74
2023/09/17 05:48:23;;;;;;;9.57;8.57;;;21.70;99.90;;;;;;5020336;28;20196;-74
2023/09/17 05:50:55;;;;;;;9.33;8.40;;;21.70;99.90;;;;;;5016961;28;20466;-76
2023/09/17 05:53:21;;;;;;;8.73;7.80;;;21.70;99.90;;;;;;5021048;28;20430;-74
2023/09/17 05:55:46;;;;;;;11.13;8.90;;;21.70;99.90;;;;;;4999148;28;20457;-76
2023/09/17 05:58:12;;;;;;;9.87;8.97;;;21.70;99.90;;;;;;5018456;28;20235;-73
2023/09/17 06:00:38;;;;;;;10.70;9.43;;;21.70;99.90;;;;;;5022355;28;20283;-73
2023/09/17 06:03:03;;;;;;;10.27;8.37;;;21.70;99.90;;;;;;5019370;28;20286;-73
2023/09/17 06:05:29;;;;;;;9.23;8.20;;;21.70;99.90;;;;;;5038933;28;20184;-74
2023/09/17 06:07:55;;;;;;;10.80;8.20;;;21.70;99.90;;;;;;5021558;28;20453;-73
2023/09/17 06:10:21;;;;;;;9.20;8.30;;;21.70;99.90;;;;;;5017792;28;20670;-74
2023/09/17 06:12:47;;;;;;;11.33;8.90;;;21.70;99.90;;;;;;5021430;28;20232;-74
2023/09/17 06:15:13;;;;;;;10.03;9.03;;;21.80;99.90;;;;;;5007649;28;20455;-72
2023/09/17 06:17:39;;;;;;;10.00;9.10;;;21.80;99.90;;;;;;5021209;28;20212;-73
2023/09/17 06:20:06;;;;;;;10.00;9.00;;;21.80;99.90;;;;;;5000968;28;20181;-76
2023/09/17 06:22:32;;;;;;;9.07;8.27;;;21.80;99.90;;;;;;5022233;28;20950;-74
2023/09/17 06:24:57;;;;;;;9.57;8.67;;;21.90;99.90;;;;;;5021081;28;20422;-75
2023/09/17 06:27:23;;;;;;;9.03;8.20;;;21.90;99.90;;;;;;5015737;28;20440;-73
2023/09/17 06:29:49;;;;;;;9.50;8.60;;;22.00;99.90;;;;;;5020631;28;20185;-74
2023/09/17 06:32:15;;;;;;;9.13;8.23;;;22.00;99.90;;;;;;5019516;28;20216;-73
2023/09/17 06:34:40;;;;;;;10.93;8.57;;;22.10;99.90;;;;;;5000946;28;20454;-74
2023/09/17 06:37:06;;;;;;;9.53;8.63;;;22.10;99.90;;;;;;5021486;28;20691;-75
2023/09/17 06:39:32;;;;;;;9.47;7.83;;;22.20;99.90;;;;;;5024932;28;20800;-73
2023/09/17 06:41:58;;;;;;;9.10;8.20;;;22.20;99.90;;;;;;5019271;28;20439;-75
2023/09/17 06:44:23;;;;;;;9.13;8.17;;;22.20;99.90;;;;;;5023828;28;20216;-73
2023/09/17 06:46:50;;;;;;;11.07;9.23;;;22.30;99.90;;;;;;5014803;28;20227;-75
2023/09/17 06:49:16;;;;;;;8.73;7.93;;;22.30;99.90;;;;;;5001925;28;20188;-73
2023/09/17 06:51:41;;;;;;;9.53;8.63;;;22.30;99.90;;;;;;5011972;28;20462;-75
2023/09/17 06:54:07;;;;;;;10.00;9.10;;;22.40;99.90;;;;;;5002096;28;20184;-76
2023/09/17 06:56:32;;;;;;;12.17;8.93;;;22.40;99.90;;;;;;5024258;28;20760;-75
2023/09/17 06:58:58;;;;;;;9.50;8.60;;;22.50;99.90;;;;;;5022834;28;20670;-74
2023/09/17 07:01:24;;;;;;;8.33;7.63;;;22.50;99.90;;;;;;5027159;28;20287;-74
2023/09/17 07:03:49;;;;;;;9.43;8.37;;;22.50;99.90;;;;;;5018312;28;20180;-75
2023/09/17 07:06:16;;;;;;;9.63;8.70;;;22.60;99.90;;;;;;5022032;28;20185;-74
2023/09/17 07:08:42;;;;;;;8.60;7.70;;;22.60;99.90;;;;;;4989354;28;20453;-74
2023/09/17 07:11:07;;;;;;;8.87;7.97;;;22.70;99.90;;;;;;5011278;28;20443;-73
2023/09/17 07:13:33;;;;;;;8.00;7.27;;;22.70;99.90;;;;;;5006572;28;20434;-73
2023/09/17 07:15:59;;;;;;;9.43;7.47;;;22.70;99.90;;;;;;5023715;28;20185;-74
2023/09/17 07:18:26;;;;;;;7.53;6.83;;;22.80;99.90;;;;;;5029889;28;20487;-73
2023/09/17 07:20:52;;;;;;;9.50;8.60;;;22.80;99.90;;;;;;5027070;28;20620;-75
2023/09/17 07:23:17;;;;;;;10.77;7.27;;;22.80;99.90;;;;;;5016626;28;20574;-73
2023/09/17 07:25:46;;;;;;;9.27;8.40;;;22.90;99.90;;;;;;5020856;28;20424;-72
2023/09/17 07:28:12;;;;;;;9.27;8.37;;;22.90;99.90;;;;;;4999391;28;20180;-72
2023/09/17 07:30:37;;;;;;;10.03;9.07;;;22.90;99.90;;;;;;5018551;28;20847;-72
2023/09/17 07:33:04;;;;;;;8.80;8.00;;;22.90;99.90;;;;;;5018344;28;20228;-71
2023/09/17 07:35:31;;;;;;;9.27;8.37;;;23.00;99.90;;;;;;5019813;28;20255;-72
2023/09/17 07:37:56;;;;;;;8.50;7.70;;;23.00;99.90;;;;;;5017084;28;20509;-74
2023/09/17 07:40:22;;;;;;;9.77;8.83;;;23.10;99.90;;;;;;5020295;28;20442;-73
2023/09/17 07:42:48;;;;;;;8.60;7.80;;;23.10;99.90;;;;;;5022235;28;20527;-74
2023/09/17 07:45:13;;;;;;;8.03;7.23;;;23.10;99.90;;;;;;5015876;28;20686;-73
2023/09/17 07:47:39;;;;;;;9.43;8.50;;;23.20;99.90;;;;;;5020410;28;20279;-73
2023/09/17 07:50:05;;;;;;;7.87;7.07;;;23.20;99.90;;;;;;5018849;28;20193;-75
2023/09/17 07:52:32;;;;;;;9.30;8.30;;;23.20;99.90;;;;;;5037383;28;20212;-76
2023/09/17 07:54:57;;;;;;;8.90;8.10;;;23.30;99.90;;;;;;5032783;28;20887;-74
2023/09/17 07:57:23;;;;;;;8.00;7.20;;;23.30;99.90;;;;;;5029587;28;20517;-74
2023/09/17 07:59:49;;;;;;;9.57;8.60;;;23.40;99.90;;;;;;5015585;28;20181;-73
2023/09/17 08:02:14;;;;;;;9.60;6.80;;;23.40;99.90;;;;;;5022204;28;20205;-72
2023/09/17 08:04:40;;;;;;;7.80;6.97;;;23.50;99.90;;;;;;5019767;28;20996;-72
2023/09/17 08:07:06;;;;;;;8.87;7.00;;;23.50;99.90;;;;;;5030988;28;20192;-73
2023/09/17 08:09:31;;;;;;;8.33;6.30;;;23.50;99.90;;;;;;5017602;28;20177;-73
2023/09/17 08:11:58;;;;;;;7.73;7.00;;;23.50;99.90;;;;;;5016605;28;20212;-73
2023/09/17 08:14:25;;;;;;;9.00;7.70;;;23.50;99.90;;;;;;5018901;28;20263;-74
2023/09/17 08:16:51;;;;;;;8.70;7.70;;;23.60;99.90;;;;;;5032391;28;20493;-73
2023/09/17 08:19:17;;;;;;;7.00;6.40;;;23.70;99.90;;;;;;5014335;28;20436;-73
2023/09/17 08:21:43;;;;;;;9.47;8.57;;;23.70;99.90;;;;;;5022957;28;20468;-74
2023/09/17 08:24:10;;;;;;;8.60;6.40;;;23.60;99.90;;;;;;4997483;28;20227;-72
2023/09/17 08:26:36;;;;;;;9.13;6.13;;;23.70;99.90;;;;;;5021111;28;20415;-72
2023/09/17 08:29:01;;;;;;;8.23;6.67;;;23.80;99.90;;;;;;5017494;28;20901;-72
2023/09/17 08:31:28;;;;;;;7.67;6.97;;;23.80;99.90;;;;;;5028126;28;20596;-72
2023/09/17 08:33:53;;;;;;;7.40;6.13;;;23.90;99.90;;;;;;5025375;28;20185;-74
2023/09/17 08:36:23;;;;;;;6.53;5.93;;;23.90;99.90;;;;;;5013847;28;20537;-73
2023/09/17 08:38:50;;;;;;;7.10;6.50;;;23.90;99.90;;;;;;5017353;28;20641;-70
2023/09/17 08:41:19;;;;;;;8.37;7.50;;;24.00;99.90;;;;;;5013157;28;20454;-70
2023/09/17 08:43:51;;;;;;;9.10;6.50;;;24.00;99.90;;;;;;5019262;28;20529;-72
2023/09/17 08:46:17;;;;;;;6.50;5.90;;;24.10;99.90;;;;;;5017632;28;20458;-71
2023/09/17 08:48:43;;;;;;;7.63;6.80;;;24.10;99.90;;;;;;5019301;28;20446;-72
2023/09/17 08:51:11;;;;;;;9.70;6.93;;;24.10;99.90;;;;;;5014006;28;20446;-72
2023/09/17 08:54:08;;;;;;;7.70;6.50;;;24.10;99.90;;;;;;5020598;28;20184;-72
2023/09/17 08:56:37;;;;;;;9.60;6.30;;;24.20;99.90;;;;;;5014112;28;20481;-71
2023/09/17 08:59:20;;;;;;;11.57;10.47;;;24.30;99.90;;;;;;4996224;28;20502;-72
2023/09/17 09:01:48;;;;;;;6.77;6.17;;;24.30;99.90;;;;;;5015509;28;20449;-72
2023/09/17 09:04:15;;;;;;;8.10;6.23;;;24.40;99.90;;;;;;5013803;28;20430;-76
2023/09/17 09:06:43;;;;;;;8.93;5.97;;;24.40;99.90;;;;;;5021572;28;20489;-78
2023/09/17 09:09:09;;;;;;;6.43;5.70;;;24.50;99.90;;;;;;5017563;28;21238;-72
2023/09/17 09:11:35;;;;;;;8.13;6.27;;;24.50;99.90;;;;;;5013057;28;20467;-73
2023/09/17 09:14:06;;;;;;;12.13;7.20;;;24.60;99.90;;;;;;5004080;28;20439;-71
2023/09/17 09:16:33;;;;;;;6.80;6.10;;;24.60;99.90;;;;;;5016038;28;20465;-73
2023/09/17 09:19:00;;;;;;;7.60;6.90;;;24.70;99.90;;;;;;5015045;28;20642;-72
2023/09/17 09:21:28;;;;;;;7.03;6.33;;;24.70;99.90;;;;;;4995269;28;20478;-72
2023/09/17 09:23:57;;;;;;;8.20;6.40;;;24.80;99.90;;;;;;4993369;28;20506;-72
2023/09/17 09:26:32;;;;;;;7.90;6.00;;;24.90;99.90;;;;;;5011705;28;20415;-73
2023/09/17 09:28:58;;;;;;;6.73;5.80;;;25.00;99.90;;;;;;5013304;28;20980;-72
2023/09/17 09:31:26;;;;;;;8.93;5.37;;;25.10;99.90;;;;;;5009436;28;20879;-72
2023/09/17 09:33:55;;;;;;;12.30;7.23;;;25.20;99.90;;;;;;5007614;28;20268;-74
2023/09/17 09:36:21;;;;;;;8.43;7.13;;;25.20;99.90;;;;;;5015028;28;20466;-72
2023/09/17 09:38:49;;;;;;;7.63;6.23;;;25.30;99.90;;;;;;5014983;28;20427;-72
2023/09/17 09:41:14;;;;;;;11.47;7.00;;;25.40;99.90;;;;;;5014172;28;20268;-73
2023/09/17 09:43:42;;;;;;;9.13;7.03;;;25.40;99.90;;;;;;5011329;28;20638;-71
2023/09/17 09:46:09;;;;;;;8.10;6.47;;;25.50;99.90;;;;;;5013626;28;20639;-72
2023/09/17 09:48:38;;;;;;;8.77;6.77;;;25.60;99.90;;;;;;5016938;28;20514;-73
2023/09/17 09:51:03;;;;;;;6.73;6.10;;;25.70;99.90;;;;;;5013642;28;20465;-73
2023/09/17 09:53:29;;;;;;;7.50;5.97;;;25.80;99.90;;;;;;5013551;28;20418;-73
2023/09/17 09:55:56;;;;;;;6.30;5.67;;;25.80;99.90;;;;;;4997646;28;20189;-74
2023/09/17 09:58:23;;;;;;;10.30;6.10;;;25.90;99.90;;;;;;5016001;28;20180;-72
2023/09/17 10:00:49;;;;;;;5.73;5.20;;;26.10;99.90;;;;;;5014188;28;20427;-73
2023/09/17 10:03:17;;;;;;;8.40;6.27;;;26.20;99.90;;;;;;5012316;28;20988;-72
2023/09/17 10:05:44;;;;;;;6.27;5.67;;;26.20;99.90;;;;;;5002346;28;20675;-72
2023/09/17 10:08:12;;;;;;;7.00;5.53;;;26.30;99.90;;;;;;4998826;28;20504;-74
2023/09/17 10:10:38;;;;;;;7.10;5.57;;;26.40;99.90;;;;;;5003013;28;20439;-74
2023/09/17 10:13:11;;;;;;;6.10;5.53;;;26.50;99.90;;;;;;5012978;28;20508;-75
2023/09/17 10:15:39;;;;;;;9.73;6.50;;;26.60;99.90;;;;;;5015321;28;20419;-74
2023/09/17 10:18:12;;;;;;;6.30;5.33;;;26.80;99.90;;;;;;5016144;28;20907;-77
2023/09/17 10:20:39;;;;;;;6.20;5.30;;;26.90;99.90;;;;;;5020476;28;20424;-76
2023/09/17 10:23:06;;;;;;;6.83;6.23;;;27.00;99.90;;;;;;5000340;28;20439;-78
2023/09/17 10:25:32;;;;;;;7.53;5.87;;;27.10;99.90;;;;;;5015530;28;20431;-74
2023/09/17 10:28:02;;;;;;;9.00;4.73;;;27.10;99.90;;;;;;5020113;28;20938;-75
2023/09/17 10:30:29;;;;;;;7.47;5.17;;;27.20;99.90;;;;;;5017268;28;20438;-73
2023/09/17 10:32:57;;;;;;;7.00;4.47;;;27.20;99.90;;;;;;5016851;28;20839;-76
2023/09/17 10:35:24;;;;;;;5.93;4.70;;;27.30;99.90;;;;;;5016181;28;20447;-74
2023/09/17 10:37:51;;;;;;;5.70;5.10;;;27.40;99.90;;;;;;5017238;28;20464;-73
2023/09/17 10:40:17;;;;;;;5.47;4.97;;;27.40;99.90;;;;;;5014127;28;20431;-75
2023/09/17 10:42:44;;;;;;;10.27;5.47;;;27.40;99.90;;;;;;5029520;28;20446;-75
2023/09/17 10:45:10;;;;;;;11.63;5.00;;;27.50;99.90;;;;;;5009234;28;20514;-77
2023/09/17 10:47:39;;;;;;;5.87;4.53;;;27.50;99.90;;;;;;5008436;28;20914;-75
2023/09/17 10:50:05;;;;;;;9.30;5.27;;;27.70;99.90;;;;;;5016419;28;20462;-75
2023/09/17 10:52:32;;;;;;;6.03;4.67;;;27.70;99.90;;;;;;5016033;28;20504;-73
2023/09/17 10:54:58;;;;;;;8.00;3.90;;;27.80;99.90;;;;;;5000040;28;20953;-77
2023/09/17 10:57:46;;;;;;;7.47;4.87;;;27.90;99.90;;;;;;5021435;28;20915;-77
2023/09/17 11:00:22;;;;;;;7.73;4.50;;;27.90;99.90;;;;;;5015615;28;20485;-76
2023/09/17 11:02:55;;;;;;;7.23;4.80;;;28.00;99.90;;;;;;4992933;28;20447;-75
2023/09/17 11:05:24;;;;;;;7.93;6.30;;;28.00;99.90;;;;;;5021562;28;20470;-76
2023/09/17 11:07:55;;;;;;;13.93;6.10;;;28.10;99.90;;;;;;5015685;28;20416;-76
2023/09/17 11:10:23;;;;;;;9.83;4.80;;;28.20;99.90;;;;;;4998249;28;20482;-75
2023/09/17 11:12:49;;;;;;;11.93;5.00;;;28.20;99.90;;;;;;5013366;28;20521;-74
2023/09/17 11:15:16;;;;;;;7.77;4.60;;;28.30;99.90;;;;;;5013118;28;20435;-74
2023/09/17 11:17:42;;;;;;;11.00;4.87;;;28.30;99.90;;;;;;5018286;28;20236;-74
2023/09/17 11:20:12;;;;;;;11.37;5.20;;;28.30;99.90;;;;;;5011659;28;20774;-75
2023/09/17 11:22:39;;;;;;;11.17;4.53;;;28.40;99.90;;;;;;4997613;28;21009;-74
2023/09/17 11:25:07;;;;;;;9.60;5.20;;;28.50;99.90;;;;;;5011600;28;20843;-78
2023/09/17 11:27:49;;;;;;;7.17;4.63;;;28.60;99.90;;;;;;5012600;28;20454;-74
2023/09/17 11:30:22;;;;;;;9.20;5.50;;;28.60;99.90;;;;;;5011623;28;20446;-73
2023/09/17 11:32:52;;;;;;;8.90;4.60;;;28.70;99.90;;;;;;5015160;28;20501;-76
2023/09/17 11:35:22;;;;;;;6.10;4.47;;;28.80;99.90;;;;;;5018789;28;20434;-77
2023/09/17 11:37:48;;;;;;;6.70;5.70;;;28.90;99.90;;;;;;5016052;28;20469;-76
2023/09/17 11:40:15;;;;;;;10.10;6.20;;;29.00;99.90;;;;;;5015329;28;20927;-79
2023/09/17 11:42:42;;;;;;;9.07;6.50;;;29.10;99.90;;;;;;5016404;28;20459;-80
2023/09/17 11:45:08;;;;;;;8.57;4.60;;;29.20;99.90;;;;;;5016467;28;20428;-77
2023/09/17 11:47:37;;;;;;;16.93;6.40;;;29.30;99.90;;;;;;5015792;28;20431;-76
2023/09/17 11:50:06;;;;;;;9.67;5.00;;;29.30;99.90;;;;;;5004697;28;20449;-79
2023/09/17 11:52:31;;;;;;;11.83;6.07;;;29.40;99.90;;;;;;5021651;28;20454;-77
2023/09/17 11:55:05;;;;;;;11.63;6.10;;;29.50;99.90;;;;;;5024890;28;21349;-76
2023/09/17 11:57:33;;;;;;;6.67;4.80;;;29.60;99.90;;;;;;5013495;28;20529;-74
2023/09/17 11:59:59;;;;;;;12.80;6.70;;;29.60;99.90;;;;;;5011335;28;20756;-78
2023/09/17 12:02:26;;;;;;;9.60;5.10;;;29.70;99.90;;;;;;5016970;28;20450;-76
2023/09/17 12:04:53;;;;;;;11.77;6.33;;;30.00;99.90;;;;;;5013626;28;20242;-77
2023/09/17 12:07:19;;;;;;;10.40;5.90;;;30.30;99.90;;;;;;4999958;28;20419;-76
2023/09/17 12:12:11;;;;;;;7.47;4.73;;;30.90;99.90;;;;;;5009026;28;20507;-77
2023/09/17 12:14:37;;;;;;;11.40;6.00;;;31.10;99.90;;;;;;5016614;28;20415;-80
2023/09/17 12:17:03;;;;;;;11.30;6.17;;;31.20;99.90;;;;;;5015705;28;20918;-75
2023/09/17 12:19:29;;;;;;;11.33;4.83;;;31.50;99.90;;;;;;4999066;28;20200;-74
2023/09/17 12:21:58;;;;;;;10.67;5.27;;;31.70;99.90;;;;;;5011438;28;20482;-75
2023/09/17 12:24:34;;;;;;;8.17;5.30;;;31.80;99.90;;;;;;5011360;28;20479;-75
2023/09/17 12:27:19;;;;;;;10.37;5.17;;;31.90;99.70;;;;;;5007369;28;20960;-75
2023/09/17 12:29:45;;;;;;;8.93;5.07;;;32.00;99.90;;;;;;5021577;28;20434;-74
2023/09/17 12:32:13;;;;;;;7.47;5.10;;;32.20;99.90;;;;;;4996611;28;20441;-74
2023/09/17 12:34:39;;;;;;;5.93;4.50;;;32.30;98.80;;;;;;5015539;28;20416;-76
2023/09/17 12:37:11;;;;;;;9.53;4.83;;;32.60;98.40;;;;;;5012800;28;20873;-75
2023/09/17 12:39:42;;;;;;;10.70;4.60;;;32.60;96.90;;;;;;5015939;28;20542;-77
2023/09/17 12:42:08;;;;;;;8.10;5.23;;;32.60;96.90;;;;;;5017323;28;20458;-75
2023/09/17 12:44:33;;;;;;;7.70;4.70;;;32.70;96.60;;;;;;5012658;28;20515;-74